Impacts TAF Board INFO
FOR SITUATIONAL AWARENESS. NOT TO BE USED FOR FLIGHT PLANNING PURPOSES.
IDs:

KEWR - Newark Intl, NJ, US

Issued at 1732 UTC 23 Jan 2018
Updated at 1811 UTC 23 Jan 2018
Potential Impact None Slight Moderate High
Time1751Z 23/19Z 23/20Z 23/21Z 23/22Z 23/23Z 24/00Z 24/01Z 24/02Z 24/03Z 24/04Z 24/05Z 24/06Z 24/07Z>>
Type OBS PRVL PRVL PRVL PRVL PRVL PRVL PRVL PRVL PRVL PRVL PRVL PRVL PRVL
VIS 10 >6 >6 >6 >6 >6 >6 >6 >6 >6 >6 >6 >6 >6
CIG 100 40 40 40 40 40 -- -- -- -- -- -- -- --
Cover BKN BKN BKN BKN BKN BKN SCT SCT SCT SCT SCT SCT SCT SCT
FltCat VFR VFR VFR VFR VFR VFR VFR VFR VFR VFR VFR VFR VFR VFR
WX -- -- -- -- -- -- -- -- -- -- -- -- -- --
WDir 310 240 240 240 240 240 260 260 260 260 260 260 260 260
WSpd 10 12 12 12 12 12 13 13 13 13 13 13 13 13
WGst -- -- -- -- -- -- 22 22 22 22 22 22 22 22

Raw TAF
KEWR 231732Z 2318/2424 22013G18KT P6SM VCSH BKN015 WS020/20045KT
  FM231900 24012KT P6SM SCT015 BKN040
  FM240000 26013G22KT P6SM SCT040
  FM241400 29016G26KT P6SM SCT040
  FM242200 31012G22KT P6SM FEW040


Raw METAR
KEWR 231751Z 31010KT 10SM FEW010 SCT050 BKN100 BKN250 14/10 A2953 RMK AO2 WSHFT 1719 RAE1659B22E51 SLP001 TCU DSNT NE-DSNT SE VCSH P0002 60018 T01440100 10161 20078 56049 $
KEWR 231733Z 30016G24KT 10SM -RA FEW008 SCT015CB BKN060 BKN130 BKN250 16/13 A2955 RMK AO2 WSHFT 1719 RAE1659B22 CB OHD MOV E P0002 T01560133 $
KEWR 231718Z 19012KT 10SM SCT009 BKN014CB OVC100 16/14 A2953 RMK AO2 RAE1659 CB SW-NW MOV E VCSH P0000 T01560139 $
KEWR 231712Z 18011KT 10SM BKN017 BKN025CB BKN110 OVC250 16/14 A2953 RMK AO2 RAE1659 CB SW-W MOV E VCSH P0000 T01560139 $
KEWR 231651Z 18014G19KT 10SM -RA SCT017 BKN040 BKN110 BKN250 16/14 A2955 RMK AO2 RAB10E31B47 SLP004 CB DSNT SW-DSNT NW MOV E P0001 T01560139 $
KEWR 231643Z 18011KT 10SM SCT017 SCT038 BKN055 BKN130 16/14 A2955 RMK AO2 RAB10E31 PRESFR CB DSNT SW-DSNT NW MOV E P0001 T01560139 $
KEWR 231551Z 18009KT 10SM BKN017 BKN055 OVC075 16/14 A2962 RMK AO2 RAE35 SLP029 P0002 T01560139 $

METAR Board
Radar Display
Forecast Discussion

FOR SITUATIONAL AWARENESS. NOT TO BE USED FOR FLIGHT PLANNING PURPOSES.